KHSV/HSV METAR and TAF weather

Enter ICAO airport designator
Station Type Date Time Source
KHSV METAR 2018/12/11 21:53 UTC NOAA

KHSV 112153Z 00000KT 10SM CLR 08/M02 A3029 RMK AO2 SLP260 T00781017


Station Type Date Time Source
KHSV Decoded METAR 2018/12/11 21:53 UTC NOAA

HUNTSVILLE INTERNATIONAL JONES FIELD, AL, United States (KHSV) 34-39N 086-47W 191M
Dec 11, 2018 - 04:53 PM EST / 2018.12.11 2153 UTC
Wind: Calm:0
Visibility: 10 mile(s):0
Sky conditions: clear
Temperature: 46.0 F (7.8 C)
Dew Point: 28.9 F (-1.7 C)
Relative Humidity: 50%
Pressure (altimeter): 30.29 in. Hg (1025 hPa)
ob: KHSV 112153Z 00000KT 10SM CLR 08/M02 A3029 RMK AO2 SLP260 T00781017
cycle: 22

Station Type Date Time Source
KHSV TAF 2018/12/11 18:24 UTC NOAA

TAF KHSV 111721Z 1118/1218 20004KT P6SM SKC
FM120300 VRB03KT P6SM SCT250
FM121600 17008KT P6SM BKN200


Example: see airport list